Terminal Aerodrome Forecast
Issued by NWS

Home | Current Version | Previous Version | Graphics & Text | Print | Product List | Glossary On
Versions: 1 2 3 4 5 6 7 8 9 10 11 12 13 14 15 16 17 18 19 20 21
000
FTUS42 KMHX 251135
TAFOAJ
TAF
KOAJ 251135Z 2512/2612 30009KT P6SM SCT005 BKN025
      TEMPO 2512/2513 BKN005
     FM251500 23008KT P6SM VCSH SCT025 BKN040
     FM252300 27005KT P6SM SCT025 BKN040
     FM260600 28003KT P6SM BKN007
      AMD LTD TO CLD VIS AND WIND=

USA.gov is the U.S. government's official web portal to all federal, state and local government web resources and services.